Ingelmunster, Belgium
Current Conditions -  °F | °C
As of 3:30 AM on Saturday 29 Nov 2014 (Local Time) from LFQQ Reporting Station
Clear Clear  
Wind Chill: 41°   Ceiling: Unl
Heat Index: 45°   Visibility: 6mi
Dew Point: 41°   Wind: 7mph
Humidity: 87%   Direction: 100°E
Pressure: 29.8"   Gusts: NA
Location:  50.92°N, 3.26°E
Report Text: LFQQ 290230Z AUTO 10006KT 9000 NSC 07/05 Q1009
Loading
Personal Weather Stations






























Interactive Weather Map New forecast layout! Learn more

10-Day Weather Forecast

Advertisements
Track Severe Weather on mobile